< < Back
Terminal Aerodrome Forecast


Current Version              Previous Versions:   1  2  3  4  5  6  7  8  9  

Terminal Aerodrome Forecast

989
FTUS42 KCHS 021736
TAFCHS
TAF
KCHS 021736Z 0218/0318 18007KT P6SM SCT040 BKN250
     FM030000 VRB03KT P6SM FEW040
     FM031400 VRB05KT P6SM SCT035=



Latest METAR

219
SAUS80 KWBC 040100 RRA
MTRCHS
METAR KCHS 040056Z 20003KT 10SM FEW100 BKN250 26/23 A2991 RMK AO2 SLP128
T02610233


USA.gov is the U.S. government's official web portal to all federal, state and local government web resources and services.